sensor_id;sensor_type;location;lat;lon;timestamp;pressure;altitude;pressure_sealevel;temperature;humidity
39309;BME280;26019;47.510;19.122;2023-05-29T00:08:53;100226.38;;;14.40;100.00
39309;BME280;26019;47.510;19.122;2023-05-29T00:18:56;100211.06;;;14.26;100.00
39309;BME280;26019;47.510;19.122;2023-05-29T00:29:01;100219.66;;;13.90;100.00
39309;BME280;26019;47.510;19.122;2023-05-29T00:39:03;100231.03;;;13.84;100.00
39309;BME280;26019;47.510;19.122;2023-05-29T00:49:14;100220.88;;;13.72;100.00
39309;BME280;26019;47.510;19.122;2023-05-29T00:59:17;100210.84;;;13.56;100.00
39309;BME280;26019;47.510;19.122;2023-05-29T01:09:23;100207.38;;;13.56;100.00
39309;BME280;26019;47.510;19.122;2023-05-29T01:29:39;100193.97;;;13.30;100.00
39309;BME280;26019;47.510;19.122;2023-05-29T01:39:44;100195.94;;;13.18;100.00
39309;BME280;26019;47.510;19.122;2023-05-29T01:49:48;100186.69;;;13.04;100.00
39309;BME280;26019;47.510;19.122;2023-05-29T01:59:59;100185.03;;;13.00;100.00
39309;BME280;26019;47.510;19.122;2023-05-29T02:10:03;100184.06;;;13.06;100.00
39309;BME280;26019;47.510;19.122;2023-05-29T02:20:06;100179.09;;;12.95;100.00
39309;BME280;26019;47.510;19.122;2023-05-29T02:30:09;100167.25;;;12.80;100.00
39309;BME280;26019;47.510;19.122;2023-05-29T02:40:10;100161.28;;;12.75;100.00
39309;BME280;26019;47.510;19.122;2023-05-29T02:50:12;100155.22;;;12.76;100.00
39309;BME280;26019;47.510;19.122;2023-05-29T03:00:17;100162.00;;;12.83;100.00
39309;BME280;26019;47.510;19.122;2023-05-29T03:10:20;100161.31;;;12.73;100.00
39309;BME280;26019;47.510;19.122;2023-05-29T03:20:22;100156.91;;;12.77;100.00
39309;BME280;26019;47.510;19.122;2023-05-29T03:30:27;100166.94;;;12.95;100.00
39309;BME280;26019;47.510;19.122;2023-05-29T03:40:29;100178.06;;;13.04;100.00
39309;BME280;26019;47.510;19.122;2023-05-29T03:50:31;100198.53;;;13.19;100.00
39309;BME280;26019;47.510;19.122;2023-05-29T04:00:33;100198.31;;;13.30;100.00
39309;BME280;26019;47.510;19.122;2023-05-29T04:10:34;100199.41;;;13.64;100.00
39309;BME280;26019;47.510;19.122;2023-05-29T04:20:38;100194.75;;;13.81;100.00
39309;BME280;26019;47.510;19.122;2023-05-29T04:30:40;100204.53;;;14.09;100.00
39309;BME280;26019;47.510;19.122;2023-05-29T04:40:44;100205.59;;;14.38;100.00
39309;BME280;26019;47.510;19.122;2023-05-29T04:50:52;100208.41;;;14.65;100.00
39309;BME280;26019;47.510;19.122;2023-05-29T05:00:54;100210.09;;;15.04;100.00
39309;BME280;26019;47.510;19.122;2023-05-29T05:11:02;100210.78;;;15.42;100.00
39309;BME280;26019;47.510;19.122;2023-05-29T05:21:07;100219.06;;;15.88;100.00
39309;BME280;26019;47.510;19.122;2023-05-29T05:31:10;100221.13;;;16.35;99.80
39309;BME280;26019;47.510;19.122;2023-05-29T05:41:14;100214.25;;;16.86;96.13
39309;BME280;26019;47.510;19.122;2023-05-29T05:51:17;100214.09;;;17.42;92.05
39309;BME280;26019;47.510;19.122;2023-05-29T06:01:22;100222.00;;;17.88;85.42
39309;BME280;26019;47.510;19.122;2023-05-29T06:11:26;100232.25;;;18.61;81.75
39309;BME280;26019;47.510;19.122;2023-05-29T06:21:29;100236.50;;;19.06;73.25
39309;BME280;26019;47.510;19.122;2023-05-29T06:31:38;100244.88;;;19.75;68.28
39309;BME280;26019;47.510;19.122;2023-05-29T06:41:40;100255.34;;;20.52;64.50
39309;BME280;26019;47.510;19.122;2023-05-29T06:51:44;100243.88;;;20.89;64.65
39309;BME280;26019;47.510;19.122;2023-05-29T07:01:48;100251.72;;;21.58;60.18
39309;BME280;26019;47.510;19.122;2023-05-29T07:11:50;100247.25;;;21.78;59.79
39309;BME280;26019;47.510;19.122;2023-05-29T07:21:52;100261.06;;;22.30;56.49
39309;BME280;26019;47.510;19.122;2023-05-29T07:31:54;100268.22;;;22.90;53.77
39309;BME280;26019;47.510;19.122;2023-05-29T07:41:57;100278.63;;;22.77;52.71
39309;BME280;26019;47.510;19.122;2023-05-29T07:51:58;100290.16;;;23.36;52.29
39309;BME280;26019;47.510;19.122;2023-05-29T08:02:04;100291.38;;;24.99;48.96
39309;BME280;26019;47.510;19.122;2023-05-29T08:12:12;100279.41;;;24.94;47.76
39309;BME280;26019;47.510;19.122;2023-05-29T08:22:15;100270.28;;;24.72;46.88
39309;BME280;26019;47.510;19.122;2023-05-29T08:32:17;100278.66;;;24.92;48.58
39309;BME280;26019;47.510;19.122;2023-05-29T08:42:29;100269.72;;;25.07;46.26
39309;BME280;26019;47.510;19.122;2023-05-29T08:52:35;100269.28;;;25.39;48.38
39309;BME280;26019;47.510;19.122;2023-05-29T09:02:41;100264.44;;;25.59;50.07
39309;BME280;26019;47.510;19.122;2023-05-29T09:12:46;100264.69;;;26.30;43.53
39309;BME280;26019;47.510;19.122;2023-05-29T09:33:15;100264.38;;;25.98;43.62
39309;BME280;26019;47.510;19.122;2023-05-29T09:43:30;100270.41;;;24.83;45.82
39309;BME280;26019;47.510;19.122;2023-05-29T09:53:32;100282.19;;;23.81;48.62
39309;BME280;26019;47.510;19.122;2023-05-29T10:03:34;100290.47;;;24.58;49.48
39309;BME280;26019;47.510;19.122;2023-05-29T10:13:38;100292.25;;;23.60;50.83
39309;BME280;26019;47.510;19.122;2023-05-29T10:23:50;100287.91;;;23.30;53.36
39309;BME280;26019;47.510;19.122;2023-05-29T10:34:33;100289.50;;;23.32;54.06
39309;BME280;26019;47.510;19.122;2023-05-29T10:44:40;100283.84;;;22.93;53.87
39309;BME280;26019;47.510;19.122;2023-05-29T10:54:50;100272.56;;;23.65;52.44
39309;BME280;26019;47.510;19.122;2023-05-29T11:05:21;100277.84;;;23.80;53.68
39309;BME280;26019;47.510;19.122;2023-05-29T11:15:25;100266.25;;;23.24;51.91
39309;BME280;26019;47.510;19.122;2023-05-29T11:25:28;100264.28;;;23.42;52.64
39309;BME280;26019;47.510;19.122;2023-05-29T11:35:30;100260.97;;;23.39;52.34
39309;BME280;26019;47.510;19.122;2023-05-29T11:45:34;100254.28;;;23.77;53.41
39309;BME280;26019;47.510;19.122;2023-05-29T11:55:37;100242.09;;;24.03;51.18
39309;BME280;26019;47.510;19.122;2023-05-29T12:05:46;100219.47;;;25.96;46.81
39309;BME280;26019;47.510;19.122;2023-05-29T12:15:54;100203.31;;;27.53;41.28
39309;BME280;26019;47.510;19.122;2023-05-29T12:26:00;100193.66;;;27.64;42.03
39309;BME280;26019;47.510;19.122;2023-05-29T12:36:12;100179.38;;;33.73;28.76
39309;BME280;26019;47.510;19.122;2023-05-29T12:46:16;100176.13;;;38.00;23.70
39309;BME280;26019;47.510;19.122;2023-05-29T12:56:22;100179.50;;;31.03;32.25
39309;BME280;26019;47.510;19.122;2023-05-29T13:06:27;100173.06;;;36.85;24.75
39309;BME280;26019;47.510;19.122;2023-05-29T13:16:30;100165.34;;;34.13;27.38
39309;BME280;26019;47.510;19.122;2023-05-29T13:26:34;100174.66;;;29.80;33.95
39309;BME280;26019;47.510;19.122;2023-05-29T13:36:40;100159.28;;;30.04;34.05
39309;BME280;26019;47.510;19.122;2023-05-29T13:46:48;100158.94;;;29.77;32.53
39309;BME280;26019;47.510;19.122;2023-05-29T13:56:50;100152.06;;;29.65;33.97
39309;BME280;26019;47.510;19.122;2023-05-29T14:06:52;100146.03;;;29.22;34.44
39309;BME280;26019;47.510;19.122;2023-05-29T14:16:56;100141.13;;;28.65;35.49
39309;BME280;26019;47.510;19.122;2023-05-29T14:26:58;100143.94;;;29.86;34.94
39309;BME280;26019;47.510;19.122;2023-05-29T14:37:00;100147.19;;;31.06;32.27
39309;BME280;26019;47.510;19.122;2023-05-29T14:47:02;100142.78;;;29.09;35.14
39309;BME280;26019;47.510;19.122;2023-05-29T14:57:04;100149.81;;;28.25;37.35
39309;BME280;26019;47.510;19.122;2023-05-29T15:07:10;100156.44;;;26.61;39.41
39309;BME280;26019;47.510;19.122;2023-05-29T15:17:11;100142.34;;;26.14;39.43
39309;BME280;26019;47.510;19.122;2023-05-29T15:27:16;100140.41;;;29.46;32.49
39309;BME280;26019;47.510;19.122;2023-05-29T15:37:18;100137.13;;;24.87;39.60
39309;BME280;26019;47.510;19.122;2023-05-29T15:47:20;100126.44;;;25.65;37.50
39309;BME280;26019;47.510;19.122;2023-05-29T15:57:22;100118.81;;;26.33;38.16
39309;BME280;26019;47.510;19.122;2023-05-29T16:07:23;100113.56;;;26.56;34.95
39309;BME280;26019;47.510;19.122;2023-05-29T16:17:26;100121.16;;;26.14;34.12
39309;BME280;26019;47.510;19.122;2023-05-29T16:27:28;100129.00;;;25.54;37.17
39309;BME280;26019;47.510;19.122;2023-05-29T16:37:30;100122.63;;;25.06;39.65
39309;BME280;26019;47.510;19.122;2023-05-29T16:47:35;100121.94;;;30.43;29.41
39309;BME280;26019;47.510;19.122;2023-05-29T16:57:38;100122.13;;;30.02;29.72
39309;BME280;26019;47.510;19.122;2023-05-29T17:07:46;100128.28;;;29.93;29.82
39309;BME280;26019;47.510;19.122;2023-05-29T17:17:48;100124.28;;;28.76;31.72
39309;BME280;26019;47.510;19.122;2023-05-29T17:27:52;100131.00;;;25.87;36.89
39309;BME280;26019;47.510;19.122;2023-05-29T17:37:55;100124.81;;;24.60;38.63
39309;BME280;26019;47.510;19.122;2023-05-29T17:47:56;100142.41;;;23.94;41.16
39309;BME280;26019;47.510;19.122;2023-05-29T17:57:59;100146.38;;;23.30;43.46
39309;BME280;26019;47.510;19.122;2023-05-29T18:08:01;100153.25;;;22.44;45.31
39309;BME280;26019;47.510;19.122;2023-05-29T18:18:09;100161.38;;;21.77;50.02
39309;BME280;26019;47.510;19.122;2023-05-29T18:28:11;100167.09;;;21.02;53.71
39309;BME280;26019;47.510;19.122;2023-05-29T18:38:13;100169.47;;;20.54;58.77
39309;BME280;26019;47.510;19.122;2023-05-29T18:48:17;100176.22;;;20.23;65.23
39309;BME280;26019;47.510;19.122;2023-05-29T18:58:20;100180.13;;;19.77;65.57
39309;BME280;26019;47.510;19.122;2023-05-29T19:08:23;100172.75;;;19.47;72.46
39309;BME280;26019;47.510;19.122;2023-05-29T19:18:25;100184.72;;;19.13;78.71
39309;BME280;26019;47.510;19.122;2023-05-29T19:28:34;100190.13;;;18.88;87.37
39309;BME280;26019;47.510;19.122;2023-05-29T19:38:36;100204.84;;;18.70;93.29
39309;BME280;26019;47.510;19.122;2023-05-29T19:48:39;100214.69;;;18.85;93.29
39309;BME280;26019;47.510;19.122;2023-05-29T19:58:41;100216.75;;;18.99;98.71
39309;BME280;26019;47.510;19.122;2023-05-29T20:08:45;100217.09;;;18.90;100.00
39309;BME280;26019;47.510;19.122;2023-05-29T20:18:47;100211.13;;;18.65;100.00
39309;BME280;26019;47.510;19.122;2023-05-29T20:28:49;100213.28;;;18.33;100.00
39309;BME280;26019;47.510;19.122;2023-05-29T20:38:56;100212.00;;;17.99;100.00
39309;BME280;26019;47.510;19.122;2023-05-29T20:49:12;100204.50;;;17.66;100.00
39309;BME280;26019;47.510;19.122;2023-05-29T20:59:32;100189.84;;;17.38;100.00
39309;BME280;26019;47.510;19.122;2023-05-29T21:09:36;100203.19;;;17.30;100.00
39309;BME280;26019;47.510;19.122;2023-05-29T21:19:39;100193.97;;;17.20;100.00
39309;BME280;26019;47.510;19.122;2023-05-29T21:29:43;100189.53;;;16.98;100.00
39309;BME280;26019;47.510;19.122;2023-05-29T21:39:45;100189.25;;;16.79;100.00
39309;BME280;26019;47.510;19.122;2023-05-29T21:49:49;100178.53;;;16.62;100.00
39309;BME280;26019;47.510;19.122;2023-05-29T21:59:51;100182.00;;;16.62;100.00
39309;BME280;26019;47.510;19.122;2023-05-29T22:10:02;100184.47;;;16.40;100.00
39309;BME280;26019;47.510;19.122;2023-05-29T22:20:06;100187.16;;;16.37;100.00
39309;BME280;26019;47.510;19.122;2023-05-29T22:30:10;100197.19;;;16.22;100.00
39309;BME280;26019;47.510;19.122;2023-05-29T22:40:25;100192.16;;;16.16;100.00
39309;BME280;26019;47.510;19.122;2023-05-29T22:50:27;100185.16;;;16.18;100.00
39309;BME280;26019;47.510;19.122;2023-05-29T23:00:30;100170.47;;;15.87;100.00
39309;BME280;26019;47.510;19.122;2023-05-29T23:10:35;100183.44;;;15.57;100.00
39309;BME280;26019;47.510;19.122;2023-05-29T23:20:37;100180.81;;;15.27;100.00
39309;BME280;26019;47.510;19.122;2023-05-29T23:30:41;100173.72;;;15.34;100.00
39309;BME280;26019;47.510;19.122;2023-05-29T23:40:43;100170.41;;;15.27;100.00
39309;BME280;26019;47.510;19.122;2023-05-29T23:50:51;100169.59;;;15.25;100.00
